createdAt,value
2024-04-14T00:00:05.889Z,192.49
2024-04-14T00:01:06.019Z,191.15
2024-04-14T00:02:06.014Z,194.84
2024-04-14T00:03:06.010Z,191.55
2024-04-14T00:04:06.130Z,193.63
2024-04-14T00:05:06.157Z,195.51
2024-04-14T00:06:06.109Z,193.49
2024-04-14T00:07:06.199Z,193.43
2024-04-14T00:08:06.163Z,195.13
2024-04-14T00:09:06.181Z,196.00
2024-04-14T00:10:06.250Z,195.05
2024-04-14T00:11:06.333Z,194.97
2024-04-14T00:12:06.274Z,194.66
2024-04-14T00:13:06.286Z,192.46
2024-04-14T00:14:06.311Z,194.30
2024-04-14T00:15:06.325Z,194.73
2024-04-14T00:16:06.403Z,195.12
2024-04-14T00:17:06.442Z,191.75
2024-04-14T00:18:06.557Z,194.06
2024-04-14T00:19:06.633Z,192.67
2024-04-14T00:20:06.635Z,193.38
2024-04-14T00:21:06.702Z,192.73
2024-04-14T00:22:06.751Z,194.03
2024-04-14T00:23:06.825Z,194.59
2024-04-14T00:24:06.866Z,196.68
2024-04-14T00:25:06.880Z,190.64
2024-04-14T00:26:06.939Z,194.62
2024-04-14T00:27:07.000Z,192.70
2024-04-14T00:28:07.055Z,194.49
2024-04-14T00:29:07.095Z,196.02
2024-04-14T00:30:07.153Z,192.80
2024-04-14T00:31:07.251Z,193.14
2024-04-14T00:32:07.325Z,193.96
2024-04-14T00:33:07.426Z,192.80
2024-04-14T00:34:07.537Z,191.18
2024-04-14T00:35:07.464Z,194.15
2024-04-14T00:36:07.545Z,193.69
2024-04-14T00:37:07.588Z,192.30
2024-04-14T00:38:07.639Z,194.69
2024-04-14T00:39:07.697Z,191.25
2024-04-14T00:40:07.744Z,192.58
2024-04-14T00:41:07.788Z,190.53
2024-04-14T00:42:07.822Z,192.19
2024-04-14T00:43:07.833Z,194.00
2024-04-14T00:44:07.856Z,190.62
2024-04-14T00:45:07.886Z,194.11
2024-04-14T00:46:07.903Z,192.48
2024-04-14T00:47:07.934Z,192.75
2024-04-14T00:48:08.028Z,193.74
2024-04-14T00:49:08.105Z,193.04
2024-04-14T00:50:08.011Z,193.33
2024-04-14T00:51:08.048Z,194.00
2024-04-14T00:52:08.079Z,196.44
2024-04-14T00:53:08.109Z,192.74
2024-04-14T00:54:08.119Z,189.57
2024-04-14T00:55:08.164Z,193.51
2024-04-14T00:56:08.162Z,192.53
2024-04-14T00:57:08.182Z,192.97
2024-04-14T00:58:08.192Z,192.14
2024-04-14T00:59:08.197Z,191.75
2024-04-14T01:00:08.248Z,192.04
2024-04-14T01:01:08.303Z,194.74
2024-04-14T01:02:08.307Z,194.38
2024-04-14T01:03:08.368Z,194.84
2024-04-14T01:04:08.400Z,193.09
2024-04-14T01:05:08.490Z,193.16
2024-04-14T01:06:08.364Z,192.64
2024-04-14T01:07:08.415Z,191.25
2024-04-14T01:08:08.476Z,191.33
2024-04-14T01:09:08.492Z,194.11
2024-04-14T01:10:08.534Z,191.65
2024-04-14T01:11:08.621Z,189.69
2024-04-14T01:12:08.622Z,191.30
2024-04-14T01:13:08.662Z,193.14
2024-04-14T01:14:08.704Z,192.72
2024-04-14T01:15:08.734Z,190.43
2024-04-14T01:16:08.760Z,191.68
2024-04-14T01:17:08.817Z,192.42
2024-04-14T01:18:08.909Z,192.10
2024-04-14T01:19:08.859Z,193.09
2024-04-14T01:20:08.870Z,193.11
2024-04-14T01:21:08.894Z,192.88
2024-04-14T01:22:08.891Z,193.14
2024-04-14T01:23:08.986Z,192.24
2024-04-14T01:24:08.946Z,192.68
2024-04-14T01:25:08.951Z,192.01
2024-04-14T01:26:08.959Z,195.50
2024-04-14T01:27:09.478Z,189.99
2024-04-14T01:28:08.992Z,191.50
2024-04-14T01:29:09.021Z,190.50
2024-04-14T01:30:09.049Z,193.13
2024-04-14T01:31:09.055Z,191.26
2024-04-14T01:32:09.108Z,189.33
2024-04-14T01:33:09.122Z,190.76
2024-04-14T01:34:09.104Z,191.10
2024-04-14T01:35:09.111Z,188.53
2024-04-14T01:36:09.139Z,193.20
2024-04-14T01:37:09.145Z,192.87
2024-04-14T01:38:16.461Z,192.03
2024-04-14T01:39:10.189Z,192.07
2024-04-14T01:40:09.293Z,191.06
2024-04-14T01:41:09.232Z,190.79
2024-04-14T01:42:09.265Z,190.82
2024-04-14T01:43:09.265Z,189.88
2024-04-14T01:44:09.289Z,191.71
2024-04-14T01:45:09.297Z,191.90
2024-04-14T01:46:09.333Z,191.50
2024-04-14T01:47:09.336Z,189.06
2024-04-14T01:48:09.470Z,193.36
2024-04-14T01:49:09.533Z,189.93
2024-04-14T01:50:09.394Z,188.57
2024-04-14T01:51:09.409Z,189.95
2024-04-14T01:52:09.452Z,191.09
2024-04-14T01:53:09.450Z,191.46
2024-04-14T01:54:09.463Z,191.48
2024-04-14T01:55:09.482Z,190.26
2024-04-14T01:56:09.510Z,190.38
2024-04-14T01:57:09.533Z,192.60
2024-04-14T01:58:09.552Z,190.80
2024-04-14T01:59:09.547Z,191.25
2024-04-14T02:00:09.563Z,191.39
2024-04-14T02:01:09.756Z,190.88
2024-04-14T02:02:09.594Z,190.07
2024-04-14T02:03:09.673Z,190.52
2024-04-14T02:04:09.849Z,189.41
2024-04-14T02:05:09.645Z,189.25
2024-04-14T02:06:09.659Z,190.79
2024-04-14T02:07:09.670Z,189.54
2024-04-14T02:08:09.702Z,189.00
2024-04-14T02:09:09.717Z,188.98
2024-04-14T02:10:09.730Z,188.54
2024-04-14T02:11:09.736Z,189.51
2024-04-14T02:12:09.734Z,189.60
2024-04-14T02:13:09.741Z,188.68
2024-04-14T02:14:09.787Z,188.77
2024-04-14T02:15:09.774Z,188.73
2024-04-14T02:16:09.778Z,187.64
2024-04-14T02:17:09.826Z,189.32
2024-04-14T02:18:09.879Z,188.85
2024-04-14T02:19:09.984Z,187.65
2024-04-14T02:20:09.845Z,188.96
2024-04-14T02:21:09.854Z,188.92
2024-04-14T02:22:09.873Z,189.95
2024-04-14T02:23:09.900Z,186.01
2024-04-14T02:24:09.919Z,189.71
2024-04-14T02:25:09.937Z,188.50
2024-04-14T02:26:09.966Z,189.74
2024-04-14T02:27:09.973Z,188.45
2024-04-14T02:28:09.989Z,186.95
2024-04-14T02:29:10.011Z,189.52
2024-04-14T02:30:10.028Z,189.15
2024-04-14T02:31:10.025Z,189.69
2024-04-14T02:32:10.146Z,187.77
2024-04-14T02:33:10.101Z,187.22
2024-04-14T02:34:10.068Z,190.83
2024-04-14T02:35:10.070Z,187.41
2024-04-14T02:36:10.091Z,189.67
2024-04-14T02:37:10.093Z,188.91
2024-04-14T02:38:10.122Z,188.14
2024-04-14T02:39:10.124Z,189.65
2024-04-14T02:40:10.138Z,186.65
2024-04-14T02:41:10.154Z,184.87
2024-04-14T02:42:10.182Z,185.11
2024-04-14T02:43:10.199Z,189.25
2024-04-14T02:44:10.247Z,188.54
2024-04-14T02:45:10.218Z,186.07
2024-04-14T02:46:10.278Z,186.39
2024-04-14T02:47:10.242Z,187.24
2024-04-14T02:48:10.381Z,189.21
2024-04-14T02:49:10.291Z,186.69
2024-04-14T02:50:10.281Z,187.54
2024-04-14T02:51:10.302Z,186.73
2024-04-14T02:52:10.327Z,187.25
2024-04-14T02:53:10.338Z,185.07
2024-04-14T02:54:10.333Z,186.55
2024-04-14T02:55:10.356Z,185.16
2024-04-14T02:56:10.357Z,186.41
2024-04-14T02:57:10.369Z,187.74
2024-04-14T02:58:10.397Z,186.89
2024-04-14T02:59:10.420Z,185.09
2024-04-14T03:00:10.441Z,188.04
2024-04-14T03:01:10.551Z,187.95
2024-04-14T03:02:10.509Z,188.58
2024-04-14T03:03:10.572Z,186.21
2024-04-14T03:04:10.769Z,185.05
2024-04-14T03:05:10.612Z,185.57
2024-04-14T03:06:10.646Z,187.41
2024-04-14T03:07:10.667Z,186.07
2024-04-14T03:08:10.705Z,185.80
2024-04-14T03:09:10.730Z,184.93
2024-04-14T03:10:10.762Z,188.33
2024-04-14T03:11:10.913Z,185.89
2024-04-14T03:12:10.845Z,185.07
2024-04-14T03:13:10.874Z,185.62
2024-04-14T03:14:10.894Z,185.08
2024-04-14T03:15:10.910Z,183.35
2024-04-14T03:16:10.977Z,185.69
2024-04-14T03:17:10.977Z,187.82
2024-04-14T03:18:11.013Z,184.91
2024-04-14T03:19:11.061Z,184.24
2024-04-14T03:20:11.089Z,186.62
2024-04-14T03:21:11.112Z,185.88
2024-04-14T03:22:11.121Z,184.21
2024-04-14T03:23:11.150Z,186.57
2024-04-14T03:24:11.186Z,183.98
2024-04-14T03:25:11.202Z,185.92
2024-04-14T03:26:11.239Z,184.02
2024-04-14T03:27:11.249Z,186.90
2024-04-14T03:28:11.416Z,185.54
2024-04-14T03:29:11.309Z,185.63
2024-04-14T03:30:11.336Z,184.52
2024-04-14T03:31:11.461Z,185.50
2024-04-14T03:32:11.409Z,185.56
2024-04-14T03:33:11.419Z,185.04
2024-04-14T03:34:11.447Z,184.65
2024-04-14T03:35:11.470Z,186.27
2024-04-14T03:36:11.525Z,184.70
2024-04-14T03:37:11.545Z,185.07
2024-04-14T03:38:11.591Z,183.74
2024-04-14T03:39:11.602Z,186.91
2024-04-14T03:40:11.626Z,183.97
2024-04-14T03:41:11.660Z,184.50
2024-04-14T03:42:11.686Z,182.38
2024-04-14T03:43:11.735Z,183.63
2024-04-14T03:44:11.766Z,185.59
2024-04-14T03:45:11.780Z,183.97
2024-04-14T03:46:11.814Z,186.08
2024-04-14T03:47:11.850Z,183.75
2024-04-14T03:48:12.078Z,185.47
2024-04-14T03:49:11.960Z,184.20
2024-04-14T03:50:11.932Z,183.73
2024-04-14T03:51:11.979Z,183.60
2024-04-14T03:52:12.013Z,183.46
2024-04-14T03:53:12.062Z,185.05
2024-04-14T03:54:12.070Z,181.36
2024-04-14T03:55:12.100Z,183.12
2024-04-14T03:56:12.135Z,183.81
2024-04-14T03:57:12.183Z,180.95
2024-04-14T03:58:12.248Z,180.86
2024-04-14T03:59:12.257Z,184.05
2024-04-14T04:00:12.295Z,184.77
2024-04-14T04:01:12.354Z,184.82
2024-04-14T04:02:12.365Z,184.36
2024-04-14T04:03:12.333Z,183.49
2024-04-14T04:04:12.505Z,186.08
2024-04-14T04:05:12.363Z,185.08
2024-04-14T04:06:12.385Z,184.57
2024-04-14T04:07:12.421Z,183.46
2024-04-14T04:08:12.444Z,184.29
2024-04-14T04:09:12.450Z,182.55
2024-04-14T04:10:12.481Z,183.55
2024-04-14T04:11:12.508Z,185.27
2024-04-14T04:12:12.532Z,184.10
2024-04-14T04:13:12.546Z,184.10
2024-04-14T04:14:12.573Z,184.39
2024-04-14T04:15:12.589Z,181.69
2024-04-14T04:16:12.613Z,184.00
2024-04-14T04:17:12.638Z,182.98
2024-04-14T04:18:12.699Z,182.36
2024-04-14T04:19:21.539Z,182.96
2024-04-14T04:20:13.731Z,183.00
2024-04-14T04:21:12.720Z,183.41
2024-04-14T04:22:12.746Z,183.38
2024-04-14T04:23:12.763Z,183.34
2024-04-14T04:24:12.771Z,182.50
2024-04-14T04:25:12.796Z,183.68
2024-04-14T04:26:20.023Z,50.00
2024-04-14T04:27:20.047Z,50.00
2024-04-14T04:28:20.056Z,50.00
2024-04-14T04:29:20.064Z,50.00
2024-04-14T04:30:20.104Z,50.00
2024-04-14T04:31:27.285Z,50.00
2024-04-14T04:32:27.289Z,50.00
2024-04-14T04:33:27.376Z,50.00
2024-04-14T04:34:27.297Z,50.00
2024-04-14T04:35:27.307Z,50.00
2024-04-14T04:36:27.346Z,50.00
2024-04-14T04:37:27.295Z,50.00
2024-04-14T04:38:27.296Z,50.00
2024-04-14T04:39:27.328Z,50.86
2024-04-14T04:40:27.310Z,50.47
2024-04-14T04:41:27.325Z,52.10
2024-04-14T04:42:27.394Z,50.66
2024-04-14T04:43:27.334Z,52.30
2024-04-14T04:44:27.322Z,53.83
2024-04-14T04:45:27.339Z,52.09
2024-04-14T04:46:27.318Z,52.07
2024-04-14T04:47:27.426Z,51.45
2024-04-14T04:48:27.563Z,50.00
2024-04-14T04:49:27.560Z,51.49
2024-04-14T04:50:27.452Z,51.01
2024-04-14T04:51:27.537Z,51.36
2024-04-14T04:52:27.560Z,51.36
2024-04-14T04:53:27.618Z,53.77
2024-04-14T04:54:27.733Z,53.38
2024-04-14T04:55:27.679Z,52.67
2024-04-14T04:56:27.724Z,50.83
2024-04-14T04:57:27.797Z,55.12
2024-04-14T04:58:27.830Z,50.46
2024-04-14T04:59:27.884Z,50.88
2024-04-14T05:00:28.110Z,51.59
2024-04-14T05:01:28.036Z,54.35
2024-04-14T05:02:28.042Z,51.04
2024-04-14T05:03:31.206Z,52.81
2024-04-14T05:04:28.151Z,52.92
2024-04-14T05:05:28.074Z,53.25
2024-04-14T05:06:28.144Z,53.25
2024-04-14T05:07:28.089Z,49.27
2024-04-14T05:08:28.088Z,51.68
2024-04-14T05:09:28.131Z,51.46
2024-04-14T05:10:31.088Z,51.59
2024-04-14T05:11:28.262Z,51.58
2024-04-14T05:12:28.117Z,51.97
2024-04-14T05:13:28.111Z,51.84
2024-04-14T05:14:28.091Z,51.57
2024-04-14T05:15:28.110Z,54.57
2024-04-14T05:16:28.111Z,50.56
2024-04-14T05:17:28.207Z,52.97
2024-04-14T05:18:28.275Z,52.63
2024-04-14T05:19:28.216Z,52.80
2024-04-14T05:20:28.117Z,53.74
2024-04-14T05:21:28.164Z,52.19
2024-04-14T05:22:28.121Z,52.42
2024-04-14T05:23:28.156Z,52.16
2024-04-14T05:24:28.152Z,53.88
2024-04-14T05:25:28.142Z,54.08
2024-04-14T05:26:28.150Z,53.01
2024-04-14T05:27:28.222Z,53.20
2024-04-14T05:28:28.156Z,53.82
2024-04-14T05:29:28.151Z,52.31
2024-04-14T05:30:28.200Z,53.88
2024-04-14T05:31:28.171Z,53.50
2024-04-14T05:32:28.301Z,53.42
2024-04-14T05:33:28.202Z,53.36
2024-04-14T05:34:28.177Z,55.10
2024-04-14T05:35:28.186Z,52.77
2024-04-14T05:36:28.241Z,55.81
2024-04-14T05:37:28.212Z,53.84
2024-04-14T05:38:28.201Z,52.46
2024-04-14T05:39:28.221Z,52.13
2024-04-14T05:40:28.225Z,53.50
2024-04-14T05:41:28.231Z,55.70
2024-04-14T05:42:28.259Z,56.02
2024-04-14T05:43:28.293Z,54.73
2024-04-14T05:44:28.362Z,53.59
2024-04-14T05:45:28.423Z,53.45
2024-04-14T05:46:28.461Z,51.01
2024-04-14T05:47:28.507Z,50.59
2024-04-14T05:48:28.690Z,52.45
2024-04-14T05:49:28.655Z,56.22
2024-04-14T05:50:28.657Z,54.11
2024-04-14T05:51:28.709Z,53.78
2024-04-14T05:52:28.759Z,52.83
2024-04-14T05:53:28.813Z,53.14
2024-04-14T05:54:28.894Z,54.80
2024-04-14T05:55:28.919Z,54.43
2024-04-14T05:56:28.975Z,55.19
2024-04-14T05:57:29.033Z,55.04
2024-04-14T05:58:29.060Z,52.77
2024-04-14T05:59:29.105Z,50.86
2024-04-14T06:00:29.363Z,52.93
2024-04-14T06:01:29.251Z,51.35
2024-04-14T06:02:29.263Z,52.02
2024-04-14T06:03:29.436Z,54.77
2024-04-14T06:04:29.461Z,52.54
2024-04-14T06:05:29.408Z,53.85
2024-04-14T06:06:29.580Z,54.13
2024-04-14T06:07:30.572Z,55.25
2024-04-14T06:08:29.598Z,54.45
2024-04-14T06:09:29.680Z,52.51
2024-04-14T06:10:29.670Z,54.23
2024-04-14T06:11:29.708Z,56.87
2024-04-14T06:12:29.823Z,56.37
2024-04-14T06:13:29.817Z,55.17
2024-04-14T06:14:29.866Z,52.75
2024-04-14T06:15:30.010Z,50.46
2024-04-14T06:16:30.017Z,54.68
2024-04-14T06:17:30.102Z,54.22
2024-04-14T06:18:30.096Z,53.90
2024-04-14T06:19:30.110Z,52.34
2024-04-14T06:20:30.173Z,52.10
2024-04-14T06:21:30.240Z,56.03
2024-04-14T06:22:30.247Z,54.93
2024-04-14T06:23:30.298Z,54.43
2024-04-14T06:24:30.420Z,55.30
2024-04-14T06:25:30.420Z,52.25
2024-04-14T06:26:30.465Z,54.27
2024-04-14T06:27:30.527Z,56.19
2024-04-14T06:28:30.560Z,55.93
2024-04-14T06:29:31.308Z,54.22
2024-04-14T06:30:30.674Z,54.19
2024-04-14T06:31:30.722Z,55.62
2024-04-14T06:32:30.840Z,55.17
2024-04-14T06:33:30.953Z,56.69
2024-04-14T06:34:30.851Z,56.02
2024-04-14T06:35:30.908Z,56.50
2024-04-14T06:36:30.973Z,55.34
2024-04-14T06:37:31.000Z,54.63
2024-04-14T06:38:31.058Z,54.39
2024-04-14T06:39:31.214Z,53.06
2024-04-14T06:40:31.172Z,54.28
2024-04-14T06:41:31.371Z,55.51
2024-04-14T06:42:31.284Z,55.45
2024-04-14T06:43:31.315Z,53.39
2024-04-14T06:44:31.373Z,54.28
2024-04-14T06:45:31.572Z,53.37
2024-04-14T06:46:31.475Z,55.49
2024-04-14T06:47:34.788Z,56.58
2024-04-14T06:48:31.656Z,55.38
2024-04-14T06:49:31.547Z,53.16
2024-04-14T06:50:31.525Z,52.12
2024-04-14T06:51:31.586Z,57.25
2024-04-14T06:52:31.530Z,54.10
2024-04-14T06:53:31.539Z,52.25
2024-04-14T06:54:31.578Z,55.30
2024-04-14T06:55:34.742Z,55.00
2024-04-14T06:56:31.532Z,54.17
2024-04-14T06:57:31.564Z,54.55
2024-04-14T06:58:31.547Z,54.65
2024-04-14T06:59:31.548Z,50.84
2024-04-14T07:00:31.583Z,53.86
2024-04-14T07:01:31.626Z,54.66
2024-04-14T07:02:31.602Z,53.71
2024-04-14T07:03:31.624Z,53.50
2024-04-14T07:04:31.669Z,53.32
2024-04-14T07:05:31.578Z,52.91
2024-04-14T07:06:31.587Z,54.08
2024-04-14T07:07:34.716Z,53.78
2024-04-14T07:08:31.587Z,53.80
2024-04-14T07:09:31.618Z,53.92
2024-04-14T07:10:31.573Z,54.05
2024-04-14T07:11:31.613Z,51.36
2024-04-14T07:12:31.610Z,50.96
2024-04-14T07:13:31.602Z,52.60
2024-04-14T07:14:31.602Z,50.00
2024-04-14T07:15:31.613Z,50.40
2024-04-14T07:16:31.609Z,51.42
2024-04-14T07:17:31.673Z,53.61
2024-04-14T07:18:31.703Z,52.33
2024-04-14T07:19:31.612Z,51.07
2024-04-14T07:20:31.605Z,55.27
2024-04-14T07:21:31.610Z,53.07
2024-04-14T07:22:31.620Z,54.19
2024-04-14T07:23:31.614Z,54.83
2024-04-14T07:24:31.632Z,52.17
2024-04-14T07:25:31.613Z,50.66
2024-04-14T07:26:31.614Z,51.44
2024-04-14T07:27:31.631Z,53.18
2024-04-14T07:28:31.628Z,54.78
2024-04-14T07:29:31.616Z,53.70
2024-04-14T07:30:31.652Z,53.34
2024-04-14T07:31:31.630Z,53.33
2024-04-14T07:32:31.670Z,52.68
2024-04-14T07:33:31.725Z,54.31
2024-04-14T07:34:31.639Z,52.72
2024-04-14T07:35:31.636Z,50.43
2024-04-14T07:36:31.658Z,51.75
2024-04-14T07:37:31.643Z,51.74
2024-04-14T07:38:31.633Z,54.58
2024-04-14T07:39:34.463Z,53.76
2024-04-14T07:40:31.633Z,53.84
2024-04-14T07:41:31.639Z,53.15
2024-04-14T07:42:31.667Z,54.42
2024-04-14T07:43:31.637Z,53.67
2024-04-14T07:44:31.648Z,53.28
2024-04-14T07:45:31.677Z,51.42
2024-04-14T07:46:31.673Z,51.95
2024-04-14T07:47:31.769Z,51.16
2024-04-14T07:48:31.809Z,54.97
2024-04-14T07:49:31.647Z,52.13
2024-04-14T07:50:31.658Z,51.59
2024-04-14T07:51:31.730Z,50.51
2024-04-14T07:52:31.675Z,52.84
2024-04-14T07:53:31.671Z,51.82
2024-04-14T07:54:31.713Z,52.56
2024-04-14T07:55:31.674Z,52.42
2024-04-14T07:56:31.682Z,51.57
2024-04-14T07:57:31.713Z,52.09
2024-04-14T07:58:31.692Z,51.61
2024-04-14T07:59:31.720Z,51.21
2024-04-14T08:00:31.743Z,51.76
2024-04-14T08:01:31.721Z,49.63
2024-04-14T08:02:31.737Z,51.20
2024-04-14T08:03:42.497Z,50.73
2024-04-14T08:04:32.817Z,50.84
2024-04-14T08:05:31.865Z,49.78
2024-04-14T08:06:31.761Z,48.35
2024-04-14T08:07:31.729Z,45.52
2024-04-14T08:08:31.753Z,46.04
2024-04-14T08:09:31.786Z,51.44
2024-04-14T08:10:31.756Z,50.34
2024-04-14T08:11:31.775Z,50.31
2024-04-14T08:12:31.760Z,51.82
2024-04-14T08:13:31.751Z,53.89
2024-04-14T08:14:31.752Z,51.65
2024-04-14T08:15:31.786Z,51.13
2024-04-14T08:16:31.789Z,51.74
2024-04-14T08:17:31.759Z,50.68
2024-04-14T08:18:31.800Z,50.62
2024-04-14T08:19:31.778Z,50.68
2024-04-14T08:20:31.777Z,50.00
2024-04-14T08:21:33.485Z,53.17
2024-04-14T08:22:31.790Z,50.74
2024-04-14T08:23:31.799Z,51.92
2024-04-14T08:24:31.865Z,51.10
2024-04-14T08:25:31.812Z,51.69
2024-04-14T08:26:31.821Z,51.56
2024-04-14T08:27:31.932Z,50.75
2024-04-14T08:28:31.852Z,52.97
2024-04-14T08:29:31.870Z,50.85
2024-04-14T08:30:31.847Z,50.00
2024-04-14T08:31:31.898Z,53.12
2024-04-14T08:32:31.911Z,52.82
2024-04-14T08:33:32.027Z,52.44
2024-04-14T08:34:31.921Z,51.45
2024-04-14T08:35:31.868Z,51.56
2024-04-14T08:36:31.907Z,54.96
2024-04-14T08:37:31.877Z,52.76
2024-04-14T08:38:31.890Z,51.22
2024-04-14T08:39:31.944Z,51.19
2024-04-14T08:40:31.883Z,51.52
2024-04-14T08:41:31.895Z,53.99
2024-04-14T08:42:31.927Z,50.00
2024-04-14T08:43:33.789Z,53.25
2024-04-14T08:44:31.931Z,52.46
2024-04-14T08:45:31.973Z,50.21
2024-04-14T08:46:31.990Z,50.47
2024-04-14T08:47:31.965Z,52.45
2024-04-14T08:48:31.974Z,51.46
2024-04-14T08:49:31.952Z,51.53
2024-04-14T08:50:31.968Z,51.38
2024-04-14T08:51:31.988Z,51.62
2024-04-14T08:52:31.953Z,51.81
2024-04-14T08:53:31.967Z,51.66
2024-04-14T08:54:32.011Z,52.22
2024-04-14T08:55:31.990Z,51.74
2024-04-14T08:56:31.989Z,50.85
2024-04-14T08:57:32.026Z,51.41
2024-04-14T08:58:31.971Z,53.03
2024-04-14T08:59:31.982Z,52.08
2024-04-14T09:00:32.055Z,52.16
2024-04-14T09:01:32.113Z,50.64
2024-04-14T09:02:32.101Z,52.60
2024-04-14T09:03:32.061Z,51.76
2024-04-14T09:04:32.177Z,52.57
2024-04-14T09:05:35.631Z,52.82
2024-04-14T09:06:32.633Z,50.74
2024-04-14T09:07:32.055Z,49.69
2024-04-14T09:08:32.066Z,48.88
2024-04-14T09:09:32.102Z,48.41
2024-04-14T09:10:32.080Z,47.06
2024-04-14T09:11:32.095Z,51.58
2024-04-14T09:12:32.126Z,54.30
2024-04-14T09:13:32.089Z,51.43
2024-04-14T09:14:32.113Z,53.20
2024-04-14T09:15:32.150Z,53.85
2024-04-14T09:16:32.190Z,51.91
2024-04-14T09:17:32.136Z,55.05
2024-04-14T09:18:32.178Z,53.77
2024-04-14T09:19:32.508Z,53.20
2024-04-14T09:20:32.128Z,50.72
2024-04-14T09:21:32.171Z,54.06
2024-04-14T09:22:32.182Z,53.36
2024-04-14T09:23:32.159Z,50.00
2024-04-14T09:24:32.164Z,53.36
2024-04-14T09:25:32.179Z,51.68
2024-04-14T09:26:32.164Z,52.99
2024-04-14T09:27:32.301Z,53.55
2024-04-14T09:28:32.320Z,53.69
2024-04-14T09:29:32.404Z,53.09
2024-04-14T09:30:32.484Z,52.02
2024-04-14T09:31:32.516Z,52.53
2024-04-14T09:32:32.622Z,53.53
2024-04-14T09:33:32.734Z,51.03
2024-04-14T09:34:32.710Z,50.61
2024-04-14T09:35:32.777Z,50.71
2024-04-14T09:36:32.916Z,51.98
2024-04-14T09:37:32.890Z,53.88
2024-04-14T09:38:32.961Z,54.00
2024-04-14T09:39:33.087Z,51.85
2024-04-14T09:40:33.177Z,52.31
2024-04-14T09:41:33.174Z,53.12
2024-04-14T09:42:33.266Z,52.29
2024-04-14T09:43:33.267Z,52.36
2024-04-14T09:44:33.292Z,52.57
2024-04-14T09:45:33.354Z,53.13
2024-04-14T09:46:33.288Z,53.59
2024-04-14T09:47:33.372Z,51.69
2024-04-14T09:48:33.312Z,52.97
2024-04-14T09:49:33.292Z,51.41
2024-04-14T09:50:33.315Z,52.07
2024-04-14T09:51:33.401Z,52.16
2024-04-14T09:52:33.459Z,52.62
2024-04-14T09:53:33.532Z,50.55
2024-04-14T09:54:33.657Z,53.05
2024-04-14T09:55:34.539Z,52.39
2024-04-14T09:56:33.762Z,51.65
2024-04-14T09:57:33.851Z,52.24
2024-04-14T09:58:33.889Z,53.74
2024-04-14T09:59:33.971Z,52.40
2024-04-14T10:00:34.054Z,52.66
2024-04-14T10:01:34.174Z,53.83
2024-04-14T10:02:34.214Z,54.18
2024-04-14T10:03:34.321Z,54.18
2024-04-14T10:04:34.334Z,54.57
2024-04-14T10:05:34.379Z,57.73
2024-04-14T10:06:34.498Z,54.83
2024-04-14T10:07:34.517Z,56.33
2024-04-14T10:08:34.572Z,54.21
2024-04-14T10:09:34.668Z,54.48
2024-04-14T10:10:34.715Z,53.66
2024-04-14T10:11:34.770Z,56.22
2024-04-14T10:12:34.903Z,55.33
2024-04-14T10:13:34.912Z,54.55
2024-04-14T10:14:34.975Z,52.91
2024-04-14T10:15:35.106Z,53.94
2024-04-14T10:16:35.126Z,55.43
2024-04-14T10:17:35.293Z,53.54
2024-04-14T10:18:35.529Z,56.85
2024-04-14T10:19:35.332Z,55.06
2024-04-14T10:20:35.412Z,55.53
2024-04-14T10:21:35.495Z,56.10
2024-04-14T10:22:35.552Z,57.79
2024-04-14T10:23:35.629Z,57.32
2024-04-14T10:24:35.693Z,56.65
2024-04-14T10:25:35.747Z,54.50
2024-04-14T10:26:35.827Z,54.90
2024-04-14T10:27:35.932Z,55.92
2024-04-14T10:28:35.953Z,54.51
2024-04-14T10:29:36.026Z,55.20
2024-04-14T10:30:36.119Z,53.61
2024-04-14T10:31:36.234Z,53.32
2024-04-14T10:32:36.250Z,52.60
2024-04-14T10:33:36.380Z,53.43
2024-04-14T10:34:36.459Z,52.87
2024-04-14T10:35:36.385Z,52.92
2024-04-14T10:36:36.524Z,53.20
2024-04-14T10:37:36.399Z,53.19
2024-04-14T10:38:36.481Z,54.89
2024-04-14T10:39:36.439Z,55.23
2024-04-14T10:40:36.403Z,56.14
2024-04-14T10:41:36.422Z,52.24
2024-04-14T10:42:36.423Z,55.79
2024-04-14T10:43:36.451Z,53.61
2024-04-14T10:44:36.512Z,52.74
2024-04-14T10:45:36.626Z,55.13
2024-04-14T10:46:36.685Z,54.44
2024-04-14T10:47:36.742Z,55.61
2024-04-14T10:48:36.846Z,54.80
2024-04-14T10:49:36.849Z,53.83
2024-04-14T10:50:36.904Z,59.80
2024-04-14T10:51:36.992Z,55.71
2024-04-14T10:52:37.024Z,55.59
2024-04-14T10:53:37.117Z,56.29
2024-04-14T10:54:37.204Z,56.56
2024-04-14T10:55:37.228Z,53.82
2024-04-14T10:56:37.311Z,55.43
2024-04-14T10:57:37.373Z,54.53
2024-04-14T10:58:37.419Z,55.88
2024-04-14T10:59:37.526Z,53.75
2024-04-14T11:00:37.648Z,57.71
2024-04-14T11:01:37.742Z,56.88
2024-04-14T11:02:37.697Z,56.38
2024-04-14T11:03:37.899Z,55.85
2024-04-14T11:04:37.918Z,56.92
2024-04-14T11:05:37.862Z,56.63
2024-04-14T11:06:37.948Z,57.27
2024-04-14T11:07:37.998Z,55.94
2024-04-14T11:08:38.064Z,56.30
2024-04-14T11:09:38.172Z,55.23
2024-04-14T11:10:38.227Z,55.53
2024-04-14T11:11:38.250Z,57.50
2024-04-14T11:12:38.336Z,53.12
2024-04-14T11:13:38.378Z,55.37
2024-04-14T11:14:38.424Z,55.85
2024-04-14T11:15:38.563Z,57.02
2024-04-14T11:16:38.649Z,56.71
2024-04-14T11:17:38.658Z,55.35
2024-04-14T11:18:38.670Z,55.94
2024-04-14T11:19:38.744Z,58.35
2024-04-14T11:20:38.817Z,53.48
2024-04-14T11:21:38.976Z,55.09
2024-04-14T11:22:38.894Z,53.23
2024-04-14T11:23:38.961Z,53.24
2024-04-14T11:24:39.035Z,53.91
2024-04-14T11:25:39.058Z,52.93
2024-04-14T11:26:39.118Z,53.76
2024-04-14T11:27:39.217Z,53.52
2024-04-14T11:28:39.226Z,51.21
2024-04-14T11:29:39.324Z,50.43
2024-04-14T11:30:39.403Z,52.63
2024-04-14T11:31:39.408Z,50.54
2024-04-14T11:32:39.531Z,50.30
2024-04-14T11:33:39.530Z,50.00
2024-04-14T11:34:39.614Z,51.26
2024-04-14T11:35:39.661Z,52.67
2024-04-14T11:36:39.710Z,51.13
2024-04-14T11:37:39.732Z,51.45
2024-04-14T11:38:39.878Z,50.12
2024-04-14T11:39:39.878Z,51.29
2024-04-14T11:40:39.910Z,51.67
2024-04-14T11:41:39.939Z,50.75
2024-04-14T11:42:40.059Z,49.95
2024-04-14T11:43:40.054Z,51.47
2024-04-14T11:44:40.110Z,52.84
2024-04-14T11:45:40.173Z,51.95
2024-04-14T11:46:40.223Z,50.56
2024-04-14T11:47:40.346Z,52.95
2024-04-14T11:48:40.310Z,50.00
2024-04-14T11:49:40.365Z,54.75
2024-04-14T11:50:40.403Z,54.92
2024-04-14T11:51:40.472Z,52.80
2024-04-14T11:52:40.517Z,52.74
2024-04-14T11:53:40.614Z,54.66
2024-04-14T11:54:40.637Z,54.12
2024-04-14T11:55:40.695Z,54.42
2024-04-14T11:56:40.734Z,56.24
2024-04-14T11:57:40.811Z,54.17
2024-04-14T11:58:40.838Z,57.64
2024-04-14T11:59:40.920Z,56.75
2024-04-14T12:00:41.052Z,57.52
2024-04-14T12:01:41.084Z,54.72
2024-04-14T12:02:41.016Z,54.82
2024-04-14T12:03:40.999Z,55.07
2024-04-14T12:04:41.023Z,54.09
2024-04-14T12:05:40.972Z,54.05
2024-04-14T12:06:40.987Z,55.28
2024-04-14T12:07:40.979Z,53.55
2024-04-14T12:08:40.990Z,54.29
2024-04-14T12:09:41.011Z,54.37
2024-04-14T12:10:41.028Z,55.53
2024-04-14T12:11:40.999Z,55.53
2024-04-14T12:12:41.048Z,55.43
2024-04-14T12:13:41.048Z,55.66
2024-04-14T12:14:40.995Z,55.42
2024-04-14T12:15:41.002Z,55.08
2024-04-14T12:16:41.047Z,55.37
2024-04-14T12:17:41.040Z,53.88
2024-04-14T12:18:41.029Z,53.29
2024-04-14T12:19:41.010Z,53.77
2024-04-14T12:20:40.984Z,51.81
2024-04-14T12:21:41.072Z,51.25
2024-04-14T12:22:41.072Z,52.34
2024-04-14T12:23:41.116Z,51.36
2024-04-14T12:24:41.154Z,50.99
2024-04-14T12:25:41.113Z,48.58
2024-04-14T12:26:41.126Z,50.86
2024-04-14T12:27:41.149Z,50.48
2024-04-14T12:28:41.133Z,50.33
2024-04-14T12:29:41.128Z,50.42
2024-04-14T12:30:46.580Z,51.09
2024-04-14T12:31:42.144Z,51.09
2024-04-14T12:32:41.162Z,48.45
2024-04-14T12:33:41.177Z,50.93
2024-04-14T12:34:41.169Z,46.17
2024-04-14T12:35:41.139Z,45.77
2024-04-14T12:36:41.132Z,50.00
2024-04-14T12:37:41.135Z,51.45
2024-04-14T12:38:41.113Z,52.50
2024-04-14T12:39:41.161Z,53.14
2024-04-14T12:40:41.119Z,53.68
2024-04-14T12:41:41.102Z,52.58
2024-04-14T12:42:41.161Z,51.64
2024-04-14T12:43:41.143Z,52.39
2024-04-14T12:44:41.183Z,52.15